createdAt,value
2018-05-03T00:00:34.217Z,95.40
2018-05-03T00:03:01.763Z,95.30
2018-05-03T00:05:29.339Z,95.40
2018-05-03T00:07:56.891Z,95.10
2018-05-03T00:10:24.461Z,95.40
2018-05-03T00:12:52.005Z,95.70
2018-05-03T00:15:19.571Z,95.70
2018-05-03T00:17:47.109Z,95.90
2018-05-03T00:20:14.676Z,95.50
2018-05-03T00:22:42.247Z,95.10
2018-05-03T00:25:09.807Z,95.30
2018-05-03T00:27:37.357Z,95.10
2018-05-03T00:30:04.908Z,95.00
2018-05-03T00:32:32.440Z,94.90
2018-05-03T00:35:00.750Z,95.20
2018-05-03T00:37:28.309Z,95.10
2018-05-03T00:39:55.888Z,95.10
2018-05-03T00:42:23.457Z,95.10
2018-05-03T00:44:51.052Z,95.00
2018-05-03T00:47:19.347Z,95.50
2018-05-03T00:49:47.702Z,96.40
2018-05-03T00:54:49.278Z,96.80
2018-05-03T00:57:17.590Z,98.00
2018-05-03T00:59:45.186Z,97.70
2018-05-03T01:02:12.731Z,98.10
2018-05-03T01:04:40.293Z,98.50
2018-05-03T01:07:07.862Z,98.60
2018-05-03T01:09:35.421Z,99.30
2018-05-03T01:12:03.005Z,99.90
2018-05-03T01:14:30.566Z,99.90
2018-05-03T01:16:58.127Z,99.90
2018-05-03T01:19:25.700Z,99.90
2018-05-03T01:21:54.044Z,99.90
2018-05-03T01:24:21.614Z,99.90
2018-05-03T01:26:49.156Z,99.90
2018-05-03T01:29:16.725Z,99.90
2018-05-03T01:31:44.335Z,99.90
2018-05-03T01:34:11.900Z,99.90
2018-05-03T01:36:39.460Z,99.90
2018-05-03T01:39:07.025Z,99.90
2018-05-03T01:41:34.596Z,99.90
2018-05-03T01:44:02.140Z,99.90
2018-05-03T01:46:29.720Z,99.90
2018-05-03T01:48:57.271Z,99.90
2018-05-03T01:51:24.839Z,99.90
2018-05-03T01:53:52.380Z,99.90
2018-05-03T01:56:19.964Z,99.90
2018-05-03T01:58:47.501Z,99.90
2018-05-03T02:01:15.080Z,99.90
2018-05-03T02:03:42.623Z,99.90
2018-05-03T02:06:10.203Z,99.90
2018-05-03T02:08:37.747Z,99.90
2018-05-03T02:11:05.318Z,99.90
2018-05-03T02:13:32.857Z,99.90
2018-05-03T02:16:00.424Z,99.90
2018-05-03T02:18:28.031Z,99.90
2018-05-03T02:20:56.507Z,99.90
2018-05-03T02:23:24.894Z,99.90
2018-05-03T02:25:53.335Z,99.90
2018-05-03T02:28:20.900Z,99.90
2018-05-03T02:30:48.467Z,99.90
2018-05-03T02:33:16.054Z,99.90
2018-05-03T02:35:43.595Z,99.90
2018-05-03T02:38:11.168Z,99.90
2018-05-03T02:40:38.707Z,99.90
2018-05-03T02:43:06.277Z,99.90
2018-05-03T02:45:33.822Z,99.90
2018-05-03T02:48:01.397Z,99.90
2018-05-03T02:50:28.962Z,99.90
2018-05-03T02:52:56.527Z,99.90
2018-05-03T02:55:24.075Z,99.90
2018-05-03T02:58:09.246Z,99.90
2018-05-03T03:00:54.461Z,99.90
2018-05-03T03:03:40.381Z,99.90
2018-05-03T03:06:19.751Z,99.90
2018-05-03T03:12:40.454Z,99.90
2018-05-03T03:15:25.788Z,99.90
2018-05-03T03:18:11.119Z,99.90
2018-05-03T03:20:57.019Z,99.50
2018-05-03T03:23:42.148Z,99.50
2018-05-03T03:29:44.042Z,98.60
2018-05-03T03:32:23.451Z,97.50
2018-05-03T03:35:02.612Z,96.40
2018-05-03T03:37:42.040Z,96.70
2018-05-03T03:40:25.395Z,96.50
2018-05-03T03:46:07.690Z,96.60
2018-05-03T03:48:35.267Z,96.20
2018-05-03T03:51:03.827Z,96.10
2018-05-03T03:53:31.401Z,96.40
2018-05-03T03:55:58.955Z,96.30
2018-05-03T03:58:26.520Z,95.50
2018-05-03T04:00:54.056Z,95.20
2018-05-03T04:03:22.390Z,95.40
2018-05-03T04:05:49.937Z,95.40
2018-05-03T04:08:17.502Z,95.40
2018-05-03T04:10:45.052Z,94.70
2018-05-03T04:13:12.614Z,94.80
2018-05-03T04:15:40.178Z,95.10
2018-05-03T04:18:19.611Z,95.70
2018-05-03T04:21:08.634Z,95.40
2018-05-03T04:23:48.101Z,95.20
2018-05-03T04:26:15.654Z,95.30
2018-05-03T04:28:43.265Z,95.50
2018-05-03T04:31:10.806Z,95.40
2018-05-03T04:33:38.366Z,95.60
2018-05-03T04:36:05.918Z,95.70
2018-05-03T04:38:33.488Z,95.80
2018-05-03T04:41:01.032Z,95.20
2018-05-03T04:43:28.610Z,95.30
2018-05-03T04:45:56.163Z,95.80
2018-05-03T04:48:23.716Z,95.70
2018-05-03T04:50:51.301Z,95.80
2018-05-03T04:53:18.854Z,96.10
2018-05-03T04:55:46.432Z,96.10
2018-05-03T04:58:14.831Z,96.60
2018-05-03T05:00:42.519Z,96.70
2018-05-03T05:03:10.155Z,95.30
2018-05-03T05:05:37.803Z,95.00
2018-05-03T05:08:05.364Z,94.50
2018-05-03T05:10:33.772Z,94.80
2018-05-03T05:13:01.267Z,94.80
2018-05-03T05:15:28.846Z,94.10
2018-05-03T05:17:56.445Z,94.20
2018-05-03T05:20:24.752Z,93.40
2018-05-03T05:22:52.290Z,93.40
2018-05-03T05:25:19.858Z,93.80
2018-05-03T05:27:47.493Z,93.50
2018-05-03T05:30:15.176Z,93.40
2018-05-03T05:32:42.786Z,93.50
2018-05-03T05:35:11.201Z,92.00
2018-05-03T05:37:38.758Z,92.10
2018-05-03T05:40:06.365Z,91.90
2018-05-03T05:42:33.916Z,91.80
2018-05-03T05:45:01.489Z,92.00
2018-05-03T05:47:29.071Z,91.80
2018-05-03T05:49:57.398Z,90.90
2018-05-03T05:52:24.954Z,90.90
2018-05-03T05:54:52.625Z,91.00
2018-05-03T05:57:20.187Z,91.30
2018-05-03T05:59:47.744Z,91.50
2018-05-03T06:02:15.290Z,91.60
2018-05-03T06:04:42.853Z,91.70
2018-05-03T06:07:10.399Z,91.10
2018-05-03T06:09:37.976Z,91.70
2018-05-03T06:12:05.506Z,92.10
2018-05-03T06:14:33.089Z,92.00
2018-05-03T06:17:00.635Z,92.30
2018-05-03T06:19:28.197Z,92.20
2018-05-03T06:21:55.758Z,92.40
2018-05-03T06:24:23.294Z,91.50
2018-05-03T06:26:51.626Z,86.10
2018-05-03T06:29:19.178Z,86.10
2018-05-03T06:31:46.754Z,87.00
2018-05-03T06:34:14.312Z,87.30
2018-05-03T06:36:41.866Z,86.90
2018-05-03T06:39:09.407Z,86.00
2018-05-03T06:41:36.970Z,86.50
2018-05-03T06:44:04.518Z,85.80
2018-05-03T06:46:32.107Z,86.40
2018-05-03T06:48:59.663Z,86.00
2018-05-03T06:51:27.241Z,85.70
2018-05-03T06:53:54.811Z,86.00
2018-05-03T06:56:22.381Z,85.80
2018-05-03T06:58:50.688Z,86.30
2018-05-03T07:01:18.288Z,86.30
2018-05-03T07:03:45.856Z,86.40
2018-05-03T07:06:13.423Z,86.00
2018-05-03T07:08:40.976Z,85.80
2018-05-03T07:11:08.542Z,84.90
2018-05-03T07:13:36.081Z,85.10
2018-05-03T07:16:03.678Z,84.20
2018-05-03T07:18:31.995Z,84.50
2018-05-03T07:20:59.564Z,84.50
2018-05-03T07:23:27.114Z,83.60
2018-05-03T07:25:54.692Z,84.00
2018-05-03T07:28:22.235Z,83.70
2018-05-03T07:30:49.799Z,83.90
2018-05-03T07:33:17.355Z,83.10
2018-05-03T07:35:44.919Z,82.80
2018-05-03T07:38:12.471Z,81.90
2018-05-03T07:40:40.060Z,80.90
2018-05-03T07:43:07.595Z,79.70
2018-05-03T07:45:35.167Z,76.90
2018-05-03T07:48:02.769Z,77.00
2018-05-03T07:50:30.417Z,77.60
2018-05-03T07:52:58.800Z,75.20
2018-05-03T07:55:27.229Z,75.50
2018-05-03T07:57:54.777Z,75.50
2018-05-03T08:00:22.320Z,75.00
2018-05-03T08:02:50.658Z,73.30
2018-05-03T08:05:18.220Z,73.30
2018-05-03T08:07:45.794Z,72.90
2018-05-03T08:10:13.340Z,73.00
2018-05-03T08:12:40.981Z,73.50
2018-05-03T08:15:08.549Z,71.40
2018-05-03T08:17:36.118Z,70.50
2018-05-03T08:20:03.678Z,70.60
2018-05-03T08:22:31.239Z,70.10
2018-05-03T08:24:58.808Z,70.20
2018-05-03T08:27:26.392Z,69.10
2018-05-03T08:29:54.715Z,69.90
2018-05-03T08:32:22.284Z,69.90
2018-05-03T08:34:49.818Z,70.80
2018-05-03T08:37:17.379Z,70.20
2018-05-03T08:39:44.922Z,70.20
2018-05-03T08:42:12.486Z,69.20
2018-05-03T08:44:40.048Z,69.50
2018-05-03T08:47:07.619Z,69.60
2018-05-03T08:49:35.162Z,69.40
2018-05-03T08:52:02.733Z,69.50
2018-05-03T08:54:30.274Z,68.80
2018-05-03T08:56:58.601Z,67.90
2018-05-03T08:59:26.141Z,67.80
2018-05-03T09:01:53.779Z,68.80
2018-05-03T09:04:21.279Z,67.20
2018-05-03T09:06:48.843Z,66.80
2018-05-03T09:09:16.398Z,66.80
2018-05-03T09:11:43.968Z,67.10
2018-05-03T09:14:11.506Z,66.50
2018-05-03T09:16:39.085Z,67.40
2018-05-03T09:19:06.636Z,66.90
2018-05-03T09:21:34.207Z,67.80
2018-05-03T09:24:01.756Z,67.60
2018-05-03T09:26:29.333Z,66.70
2018-05-03T09:28:56.866Z,65.60
2018-05-03T09:31:24.438Z,65.60
2018-05-03T09:33:51.998Z,65.90
2018-05-03T09:36:19.576Z,65.70
2018-05-03T09:38:47.126Z,65.80
2018-05-03T09:41:14.666Z,65.40
2018-05-03T09:43:42.231Z,65.30
2018-05-03T09:46:09.789Z,66.20
2018-05-03T09:48:37.366Z,65.50
2018-05-03T09:51:04.916Z,64.40
2018-05-03T09:53:32.483Z,65.00
2018-05-03T09:56:00.028Z,64.60
2018-05-03T09:58:27.622Z,64.90
2018-05-03T10:00:55.928Z,66.70
2018-05-03T10:03:23.500Z,66.60
2018-05-03T10:05:51.047Z,65.80
2018-05-03T10:08:18.623Z,65.80
2018-05-03T10:10:46.173Z,65.70
2018-05-03T10:13:13.751Z,65.60
2018-05-03T10:15:41.311Z,65.40
2018-05-03T10:18:08.889Z,66.10
2018-05-03T10:20:36.435Z,65.80
2018-05-03T10:23:04.010Z,65.50
2018-05-03T10:25:31.573Z,65.80
2018-05-03T10:27:59.150Z,65.70
2018-05-03T10:30:27.471Z,65.90
2018-05-03T10:32:55.037Z,65.70
2018-05-03T10:35:22.576Z,66.40
2018-05-03T10:37:50.155Z,66.10
2018-05-03T10:40:17.717Z,66.30
2018-05-03T10:42:45.300Z,65.20
2018-05-03T10:45:12.834Z,64.80
2018-05-03T10:47:40.397Z,64.30
2018-05-03T10:50:07.947Z,64.10
2018-05-03T10:52:35.535Z,64.60
2018-05-03T10:55:03.865Z,66.20
2018-05-03T10:57:31.494Z,66.10
2018-05-03T10:59:59.011Z,66.70
2018-05-03T11:02:26.597Z,66.20
2018-05-03T11:04:54.149Z,67.20
2018-05-03T11:07:21.715Z,67.80
2018-05-03T11:09:49.253Z,68.20
2018-05-03T11:12:16.825Z,68.20
2018-05-03T11:14:44.391Z,67.90
2018-05-03T11:17:11.935Z,67.40
2018-05-03T11:19:39.515Z,67.70
2018-05-03T11:22:07.050Z,66.60
2018-05-03T11:24:34.627Z,66.40
2018-05-03T11:27:02.179Z,66.80
2018-05-03T11:29:29.755Z,66.70
2018-05-03T11:31:57.301Z,67.20
2018-05-03T11:34:24.871Z,67.00
2018-05-03T11:36:52.444Z,68.20
2018-05-03T11:39:20.022Z,68.00
2018-05-03T11:41:48.343Z,67.60
2018-05-03T11:44:15.911Z,67.60
2018-05-03T11:46:43.440Z,67.70
2018-05-03T11:49:11.021Z,68.30
2018-05-03T11:51:38.579Z,67.10
2018-05-03T11:54:06.148Z,67.10
2018-05-03T11:56:33.688Z,67.10
2018-05-03T11:59:01.259Z,66.70
2018-05-03T12:01:28.815Z,66.50
2018-05-03T12:03:56.383Z,67.20
2018-05-03T12:06:23.922Z,66.60
2018-05-03T12:08:51.495Z,66.30
2018-05-03T12:11:19.049Z,65.70
2018-05-03T12:13:46.620Z,66.10
2018-05-03T12:16:14.160Z,65.90
2018-05-03T12:18:41.730Z,65.30
2018-05-03T12:21:09.291Z,64.60
2018-05-03T12:23:36.847Z,64.70
2018-05-03T12:26:04.392Z,65.30
2018-05-03T12:28:31.998Z,64.30
2018-05-03T12:30:59.546Z,63.10
2018-05-03T12:33:27.115Z,64.10
2018-05-03T12:35:54.667Z,64.10
2018-05-03T12:38:22.239Z,65.50
2018-05-03T12:40:49.777Z,63.70
2018-05-03T12:43:17.346Z,62.60
2018-05-03T12:45:44.917Z,63.50
2018-05-03T12:48:12.471Z,62.20
2018-05-03T12:50:40.030Z,62.10
2018-05-03T12:53:07.570Z,61.20
2018-05-03T12:55:35.135Z,60.30
2018-05-03T12:58:02.675Z,59.50
2018-05-03T13:00:30.257Z,59.30
2018-05-03T13:02:57.810Z,59.40
2018-05-03T13:05:25.363Z,60.10
2018-05-03T13:07:52.899Z,60.10
2018-05-03T13:10:20.467Z,60.10
2018-05-03T13:12:48.019Z,60.50
2018-05-03T13:15:16.158Z,60.50
2018-05-03T13:17:43.703Z,61.20
2018-05-03T13:20:11.276Z,60.60
2018-05-03T13:22:38.830Z,59.80
2018-05-03T13:25:06.408Z,60.20
2018-05-03T13:27:34.725Z,58.50
2018-05-03T13:30:02.289Z,58.50
2018-05-03T13:32:29.842Z,58.10
2018-05-03T13:34:57.412Z,58.10
2018-05-03T13:37:24.945Z,58.70
2018-05-03T13:39:52.542Z,58.60
2018-05-03T13:42:20.090Z,59.30
2018-05-03T13:44:47.665Z,58.80
2018-05-03T13:47:15.979Z,59.50
2018-05-03T13:49:44.317Z,58.90
2018-05-03T13:52:11.864Z,58.90
2018-05-03T13:54:39.428Z,58.70
2018-05-03T13:57:06.966Z,58.30
2018-05-03T13:59:34.540Z,57.70
2018-05-03T14:02:02.095Z,57.00
2018-05-03T14:04:29.673Z,55.10
2018-05-03T14:06:57.247Z,56.30
2018-05-03T14:09:24.789Z,56.80
2018-05-03T14:11:52.359Z,56.50
2018-05-03T14:14:19.904Z,55.60
2018-05-03T14:16:47.480Z,55.30
2018-05-03T14:19:15.860Z,54.80
2018-05-03T14:21:43.383Z,55.30
2018-05-03T14:24:10.946Z,55.40
2018-05-03T14:26:38.510Z,55.40
2018-05-03T14:29:06.163Z,55.50
2018-05-03T14:31:33.741Z,55.70
2018-05-03T14:34:01.286Z,55.10
2018-05-03T14:36:28.861Z,54.10
2018-05-03T14:38:56.413Z,54.70
2018-05-03T14:41:23.979Z,55.10
2018-05-03T14:43:51.520Z,55.80
2018-05-03T14:46:19.112Z,55.50
2018-05-03T14:48:47.440Z,55.10
2018-05-03T14:51:15.771Z,55.40
2018-05-03T14:53:43.319Z,55.40
2018-05-03T14:56:10.877Z,55.70
2018-05-03T14:58:38.428Z,55.60
2018-05-03T15:01:05.994Z,55.60
2018-05-03T15:03:33.526Z,55.50
2018-05-03T15:06:01.103Z,54.90
2018-05-03T15:08:28.647Z,55.10
2018-05-03T15:10:56.220Z,55.30
2018-05-03T15:13:23.761Z,55.40
2018-05-03T15:15:51.347Z,55.90
2018-05-03T15:18:18.910Z,56.00
2018-05-03T15:20:46.486Z,55.70
2018-05-03T15:23:14.046Z,55.90
2018-05-03T15:25:41.602Z,56.00
2018-05-03T15:28:09.897Z,55.70
2018-05-03T15:30:37.484Z,55.60
2018-05-03T15:33:05.796Z,56.70
2018-05-03T15:35:33.346Z,56.70
2018-05-03T15:38:00.915Z,56.20
2018-05-03T15:40:28.454Z,55.80
2018-05-03T15:42:56.019Z,56.10
2018-05-03T15:45:23.566Z,55.80
2018-05-03T15:47:51.127Z,55.60
2018-05-03T15:50:19.458Z,55.60
2018-05-03T15:52:47.041Z,55.50
2018-05-03T15:55:15.365Z,55.80
2018-05-03T15:57:42.943Z,55.70
2018-05-03T16:00:10.487Z,56.50
2018-05-03T16:02:38.051Z,56.00
2018-05-03T16:05:05.592Z,55.80
2018-05-03T16:07:33.161Z,55.80
2018-05-03T16:10:00.714Z,56.20
2018-05-03T16:12:28.295Z,56.20
2018-05-03T16:14:55.854Z,56.70
2018-05-03T16:17:23.427Z,56.40
2018-05-03T16:19:51.009Z,57.10
2018-05-03T16:22:18.595Z,56.90
2018-05-03T16:24:46.908Z,56.70
2018-05-03T16:27:14.590Z,56.70
2018-05-03T16:29:42.835Z,57.30
2018-05-03T16:32:10.403Z,57.20
2018-05-03T16:34:37.959Z,57.60
2018-05-03T16:37:05.536Z,57.50
2018-05-03T16:39:33.083Z,57.20
2018-05-03T16:42:00.653Z,57.60
2018-05-03T16:44:28.196Z,57.80
2018-05-03T16:46:55.772Z,58.20
2018-05-03T16:49:23.312Z,58.50
2018-05-03T16:51:50.900Z,58.40
2018-05-03T16:54:18.449Z,58.20
2018-05-03T16:56:46.015Z,58.30
2018-05-03T16:59:13.563Z,58.40
2018-05-03T17:01:41.116Z,58.80
2018-05-03T17:04:08.690Z,58.70
2018-05-03T17:06:36.235Z,59.00
2018-05-03T17:09:03.807Z,59.30
2018-05-03T17:11:31.356Z,59.60
2018-05-03T17:13:58.914Z,59.40
2018-05-03T17:16:26.454Z,59.50
2018-05-03T17:18:54.029Z,59.50
2018-05-03T17:21:21.580Z,59.50
2018-05-03T17:23:49.150Z,59.60
2018-05-03T17:26:16.701Z,59.50
2018-05-03T17:28:44.268Z,59.60
2018-05-03T17:31:11.815Z,59.80
2018-05-03T17:33:39.386Z,60.00
2018-05-03T17:36:06.945Z,59.90
2018-05-03T17:38:34.506Z,59.90
2018-05-03T17:41:02.043Z,59.90
2018-05-03T17:43:29.625Z,59.90
2018-05-03T17:45:57.172Z,59.90
2018-05-03T17:48:24.746Z,60.10
2018-05-03T17:50:52.288Z,60.10
2018-05-03T17:53:19.846Z,60.30
2018-05-03T17:55:47.390Z,60.60
2018-05-03T17:58:15.720Z,60.90
2018-05-03T18:00:43.258Z,60.90
2018-05-03T18:03:10.827Z,60.90
2018-05-03T18:05:38.369Z,61.00
2018-05-03T18:08:05.940Z,61.30
2018-05-03T18:10:33.483Z,61.50
2018-05-03T18:13:01.053Z,61.40
2018-05-03T18:15:28.637Z,61.90
2018-05-03T18:17:56.197Z,62.00
2018-05-03T18:20:23.738Z,62.10
2018-05-03T18:22:51.301Z,62.30
2018-05-03T18:25:18.860Z,62.50
2018-05-03T18:27:46.410Z,62.60
2018-05-03T18:30:13.975Z,62.90
2018-05-03T18:32:41.554Z,63.20
2018-05-03T18:35:09.134Z,63.20
2018-05-03T18:37:36.696Z,63.50
2018-05-03T18:40:04.264Z,63.70
2018-05-03T18:42:31.803Z,63.90
2018-05-03T18:44:59.372Z,63.70
2018-05-03T18:47:26.916Z,64.20
2018-05-03T18:49:54.556Z,64.60
2018-05-03T18:52:22.044Z,64.50
2018-05-03T18:54:49.670Z,64.60
2018-05-03T18:57:17.957Z,64.40
2018-05-03T18:59:45.524Z,64.40
2018-05-03T19:02:13.075Z,64.60
2018-05-03T19:04:40.640Z,65.10
2018-05-03T19:07:08.185Z,64.90
2018-05-03T19:09:35.753Z,65.10
2018-05-03T19:12:03.295Z,65.10
2018-05-03T19:14:30.955Z,64.90
2018-05-03T19:16:58.442Z,64.90
2018-05-03T19:19:26.001Z,65.00
2018-05-03T19:21:53.547Z,64.90
2018-05-03T19:24:21.123Z,64.80
2018-05-03T19:26:48.657Z,64.70
2018-05-03T19:29:16.244Z,65.10
2018-05-03T19:31:43.787Z,65.20
2018-05-03T19:34:11.341Z,65.00
2018-05-03T19:36:38.902Z,65.00
2018-05-03T19:39:06.468Z,65.10
2018-05-03T19:41:34.035Z,65.10
2018-05-03T19:44:01.569Z,65.10
2018-05-03T19:46:29.140Z,64.90
2018-05-03T19:48:56.665Z,65.20
2018-05-03T19:51:24.996Z,65.00
2018-05-03T19:53:52.522Z,64.90
2018-05-03T19:56:20.104Z,65.10
2018-05-03T19:58:47.641Z,65.40
2018-05-03T20:01:15.214Z,65.30
2018-05-03T20:03:42.757Z,65.50
2018-05-03T20:06:10.355Z,65.60
2018-05-03T20:08:37.900Z,66.00
2018-05-03T20:11:05.467Z,66.00
2018-05-03T20:13:33.051Z,66.10
2018-05-03T20:16:00.630Z,66.60
2018-05-03T20:18:28.153Z,66.60
2018-05-03T20:20:55.731Z,67.40
2018-05-03T20:23:23.317Z,67.10
2018-05-03T20:25:51.659Z,67.50
2018-05-03T20:28:19.211Z,67.40
2018-05-03T20:30:46.789Z,67.70
2018-05-03T20:33:15.309Z,68.00
2018-05-03T20:35:42.879Z,67.90
2018-05-03T20:38:10.428Z,68.10
2018-05-03T20:40:37.998Z,68.10
2018-05-03T20:43:05.543Z,68.40
2018-05-03T20:45:33.093Z,68.30
2018-05-03T20:48:00.653Z,68.80
2018-05-03T20:50:28.977Z,68.80
2018-05-03T20:52:56.517Z,68.70
2018-05-03T20:55:24.105Z,68.90
2018-05-03T20:57:51.681Z,69.20
2018-05-03T21:00:20.057Z,69.10
2018-05-03T21:02:48.449Z,69.90
2018-05-03T21:05:16.846Z,69.90
2018-05-03T21:07:45.276Z,70.00
2018-05-03T21:10:12.878Z,70.00
2018-05-03T21:12:40.540Z,70.10
2018-05-03T21:15:08.216Z,70.20
2018-05-03T21:17:36.551Z,70.30
2018-05-03T21:20:04.130Z,70.30
2018-05-03T21:22:31.708Z,70.50
2018-05-03T21:25:00.015Z,71.00
2018-05-03T21:27:27.578Z,70.90
2018-05-03T21:29:55.115Z,70.90
2018-05-03T21:32:22.683Z,71.00
2018-05-03T21:34:50.218Z,71.50
2018-05-03T21:37:18.550Z,71.50
2018-05-03T21:39:46.096Z,71.40
2018-05-03T21:42:13.665Z,71.70
2018-05-03T21:44:41.207Z,71.90
2018-05-03T21:47:08.818Z,71.80
2018-05-03T21:49:37.199Z,72.00
2018-05-03T21:52:05.605Z,71.80
2018-05-03T21:54:33.211Z,71.90
2018-05-03T21:57:00.795Z,71.90
2018-05-03T21:59:28.332Z,72.00
2018-05-03T22:01:55.911Z,72.10
2018-05-03T22:04:23.455Z,72.10
2018-05-03T22:06:51.016Z,72.30
2018-05-03T22:09:18.549Z,72.40
2018-05-03T22:11:46.103Z,72.60
2018-05-03T22:14:13.645Z,72.50
2018-05-03T22:16:41.199Z,72.30
2018-05-03T22:19:09.534Z,72.40
2018-05-03T22:21:37.081Z,72.40
2018-05-03T22:24:04.644Z,72.20
2018-05-03T22:26:32.183Z,72.60
2018-05-03T22:28:59.747Z,72.70
2018-05-03T22:31:27.277Z,72.70
2018-05-03T22:33:54.845Z,72.40
2018-05-03T22:36:22.388Z,72.40
2018-05-03T22:38:50.709Z,72.30
2018-05-03T22:41:18.247Z,72.30
2018-05-03T22:43:45.812Z,71.80
2018-05-03T22:46:13.345Z,72.10
2018-05-03T22:48:41.676Z,72.60
2018-05-03T22:51:09.211Z,72.60
2018-05-03T22:53:36.771Z,72.70
2018-05-03T22:56:04.314Z,72.60
2018-05-03T22:58:31.898Z,72.40
2018-05-03T23:00:59.552Z,72.30
2018-05-03T23:03:27.126Z,72.20
2018-05-03T23:05:54.672Z,72.30
2018-05-03T23:08:22.230Z,72.20
2018-05-03T23:10:49.774Z,72.50
2018-05-03T23:13:17.351Z,72.40
2018-05-03T23:15:44.894Z,72.60
2018-05-03T23:18:12.472Z,72.50
2018-05-03T23:20:40.020Z,72.30
2018-05-03T23:23:07.599Z,72.30
2018-05-03T23:25:35.143Z,72.60
2018-05-03T23:28:02.726Z,72.70
2018-05-03T23:30:30.331Z,73.00
2018-05-03T23:32:57.875Z,73.00
2018-05-03T23:35:25.434Z,72.60
2018-05-03T23:37:52.994Z,73.60
2018-05-03T23:40:21.314Z,72.90
2018-05-03T23:42:48.882Z,72.90
2018-05-03T23:45:16.431Z,73.20
2018-05-03T23:47:43.988Z,73.30
2018-05-03T23:50:11.562Z,73.70
2018-05-03T23:52:39.106Z,73.20
2018-05-03T23:55:06.686Z,73.10
2018-05-03T23:57:34.231Z,73.50
